Clipper 3 — ZMT3984 — position and weather

sailwx.info

Track history (hours):
 
Tides and Currents Weather Stations Pressure Air Temp Water Temp Dewpoint Dewpoint Depression Visibility Wind Speed Wind Dir Waves Ship Positions

Clipper 3

Last reported at 2015-Mar-02 18:34 UTC. Time now 2015-Mar-02 19:02 UTC.
Position S 36°50' E 174°46'.

Length 14 m; draft 1 m.

Type: High speed craft. MMSI: 512000741.

Date/timePositionNaut miles runAvg speedWind from/ knotsBaromVisibWave heightAir tempDewpointWater temp
2015-Mar-02 18:34S 36°50' E 174°46'6 0.5
2015-Mar-02 05:19S 36°51' E 174°54'6 3.6
2015-Mar-02 03:33S 36°51' E 174°46'6 2.9
2015-Mar-02 01:18S 36°51' E 174°54'1 0.3
2015-Mar-01 23:16S 36°51' E 174°53'0 0.0
2015-Mar-01 20:06S 36°51' E 174°53'2 4.5
2015-Mar-01 19:33S 36°50' E 174°50'4 3.6
2015-Mar-01 18:32S 36°51' E 174°46'11 0.8
2015-Mar-01 04:34S 36°48' E 174°59'1110.6
2015-Mar-01 03:34S 36°51' E 174°46'0 0.0
2015-Mar-01 02:33S 36°51' E 174°46'1110.9
2015-Mar-01 01:34S 36°47' E 174°59'1110.0
2015-Mar-01 00:29S 36°50' E 174°46'5 5.6
2015-Feb-28 23:33S 36°49' E 174°52'6 5.7
2015-Feb-28 22:34S 36°47' E 174°59'1110.8
2015-Feb-28 21:33S 36°51' E 174°46'1110.8
2015-Feb-28 20:34S 36°47' E 174°59'1 0.0
2015-Feb-28 04:33S 36°47' E 174°59'1110.9
2015-Feb-28 03:33S 36°51' E 174°46'0 0.0
2015-Feb-28 02:33S 36°51' E 174°46'1111.1
2015-Feb-28 01:33S 36°47' E 174°59'1110.9
2015-Feb-28 00:33S 36°51' E 174°46'7 7.4
2015-Feb-27 23:33S 36°48' E 174°55'4 3.8
2015-Feb-27 22:34S 36°47' E 174°59'1111.1
2015-Feb-27 21:33S 36°51' E 174°46'3 0.1
2015-Feb-27 03:25S 36°50' E 174°49'3 0.5
2015-Feb-26 20:05S 36°51' E 174°54'3 6.1
2015-Feb-26 19:33S 36°50' E 174°50'3 2.8
2015-Feb-26 18:32S 36°50' E 174°46'0 0.0
2015-Feb-26 03:32S 36°50' E 174°46'4 1.6
2015-Feb-26 01:15S 36°50' E 174°51'3 0.1
2015-Feb-25 05:15S 36°51' E 174°54'6 3.7
2015-Feb-25 03:33S 36°51' E 174°46'6 2.7
2015-Feb-25 01:15S 36°51' E 174°54'0 0.0
2015-Feb-24 23:15S 36°51' E 174°54'0 0.0
2015-Feb-24 20:07S 36°51' E 174°54'4 6.8
2015-Feb-24 19:33S 36°50' E 174°49'2 2.3
2015-Feb-24 18:33S 36°50' E 174°46'6 0.5
2015-Feb-24 05:17S 36°51' E 174°54'6 3.8
2015-Feb-24 03:33S 36°51' E 174°46'7 2.9
2015-Feb-24 01:17S 36°51' E 174°54'0 0.1
2015-Feb-23 23:17S 36°51' E 174°54'0 0.1
2015-Feb-23 20:07S 36°51' E 174°53'3 6.1
2015-Feb-23 19:33S 36°50' E 174°49'3 2.5
2015-Feb-23 18:32S 36°50' E 174°46'6 0.4
2015-Feb-23 05:16S 36°49' E 174°53'6 3.4
2015-Feb-23 03:33S 36°51' E 174°46'6 2.7
2015-Feb-23 01:16S 36°51' E 174°54'1 0.3
2015-Feb-22 23:16S 36°51' E 174°53'0 0.1
2015-Feb-22 20:06S 36°51' E 174°53'3 5.7
2015-Feb-22 19:33S 36°50' E 174°49'3 2.7
2015-Feb-22 18:33S 36°50' E 174°46'11 0.8
2015-Feb-22 04:34S 36°47' E 174°59'1110.8
2015-Feb-22 03:33S 36°51' E 174°46'0 0.0
2015-Feb-22 02:33S 36°51' E 174°46'1110.8
2015-Feb-22 01:34S 36°47' E 174°59'1110.8
2015-Feb-22 00:33S 36°51' E 174°46'8 8.0
2015-Feb-21 23:33S 36°48' E 174°55'3 2.7
2015-Feb-21 22:33S 36°47' E 174°59'1110.7
2015-Feb-21 21:33S 36°51' E 174°46'1110.8
2015-Feb-21 20:33S 36°47' E 174°59'1 0.0
2015-Feb-21 04:33S 36°47' E 174°59'1111.3
2015-Feb-21 03:33S 36°51' E 174°46'0 0.0
2015-Feb-21 02:33S 36°51' E 174°46'1111.0
2015-Feb-21 01:33S 36°47' E 174°59'1111.0
2015-Feb-21 00:34S 36°51' E 174°46'8 7.6
2015-Feb-20 23:34S 36°48' E 174°55'3 3.2
2015-Feb-20 22:33S 36°47' E 174°59'1110.8
2015-Feb-20 21:33S 36°51' E 174°46'1110.7
2015-Feb-20 20:33S 36°47' E 174°59'  
Track history (hours):
 
Tides and Currents Weather Stations Pressure Air Temp Water Temp Dewpoint Dewpoint Depression Visibility Wind Speed Wind Dir Waves Ship Positions

Clipper 3

Last reported at 2015-Mar-02 18:34 UTC. Time now 2015-Mar-02 19:02 UTC.
Position S 36°50' E 174°46'.

Length 14 m; draft 1 m.

Type: High speed craft. MMSI: 512000741.

Date/timePositionNaut miles runAvg speedWind from/ knotsBaromVisibWave heightAir tempDewpointWater temp
2015-Mar-02 18:34S 36°50' E 174°46'6 0.5
2015-Mar-02 05:19S 36°51' E 174°54'6 3.6
2015-Mar-02 03:33S 36°51' E 174°46'6 2.9
2015-Mar-02 01:18S 36°51' E 174°54'1 0.3
2015-Mar-01 23:16S 36°51' E 174°53'0 0.0
2015-Mar-01 20:06S 36°51' E 174°53'2 4.5
2015-Mar-01 19:33S 36°50' E 174°50'4 3.6
2015-Mar-01 18:32S 36°51' E 174°46'11 0.8
2015-Mar-01 04:34S 36°48' E 174°59'1110.6
2015-Mar-01 03:34S 36°51' E 174°46'0 0.0
2015-Mar-01 02:33S 36°51' E 174°46'1110.9
2015-Mar-01 01:34S 36°47' E 174°59'1110.0
2015-Mar-01 00:29S 36°50' E 174°46'5 5.6
2015-Feb-28 23:33S 36°49' E 174°52'6 5.7
2015-Feb-28 22:34S 36°47' E 174°59'1110.8
2015-Feb-28 21:33S 36°51' E 174°46'1110.8
2015-Feb-28 20:34S 36°47' E 174°59'1 0.0
2015-Feb-28 04:33S 36°47' E 174°59'1110.9
2015-Feb-28 03:33S 36°51' E 174°46'0 0.0
2015-Feb-28 02:33S 36°51' E 174°46'1111.1
2015-Feb-28 01:33S 36°47' E 174°59'1110.9
2015-Feb-28 00:33S 36°51' E 174°46'7 7.4
2015-Feb-27 23:33S 36°48' E 174°55'4 3.8
2015-Feb-27 22:34S 36°47' E 174°59'1111.1
2015-Feb-27 21:33S 36°51' E 174°46'3 0.1
2015-Feb-27 03:25S 36°50' E 174°49'3 0.5
2015-Feb-26 20:05S 36°51' E 174°54'3 6.1
2015-Feb-26 19:33S 36°50' E 174°50'3 2.8
2015-Feb-26 18:32S 36°50' E 174°46'0 0.0
2015-Feb-26 03:32S 36°50' E 174°46'4 1.6
2015-Feb-26 01:15S 36°50' E 174°51'3 0.1
2015-Feb-25 05:15S 36°51' E 174°54'6 3.7
2015-Feb-25 03:33S 36°51' E 174°46'6 2.7
2015-Feb-25 01:15S 36°51' E 174°54'0 0.0
2015-Feb-24 23:15S 36°51' E 174°54'0 0.0
2015-Feb-24 20:07S 36°51' E 174°54'4 6.8
2015-Feb-24 19:33S 36°50' E 174°49'2 2.3
2015-Feb-24 18:33S 36°50' E 174°46'6 0.5
2015-Feb-24 05:17S 36°51' E 174°54'6 3.8
2015-Feb-24 03:33S 36°51' E 174°46'7 2.9
2015-Feb-24 01:17S 36°51' E 174°54'0 0.1
2015-Feb-23 23:17S 36°51' E 174°54'0 0.1
2015-Feb-23 20:07S 36°51' E 174°53'3 6.1
2015-Feb-23 19:33S 36°50' E 174°49'3 2.5
2015-Feb-23 18:32S 36°50' E 174°46'6 0.4
2015-Feb-23 05:16S 36°49' E 174°53'6 3.4
2015-Feb-23 03:33S 36°51' E 174°46'6 2.7
2015-Feb-23 01:16S 36°51' E 174°54'1 0.3
2015-Feb-22 23:16S 36°51' E 174°53'0 0.1
2015-Feb-22 20:06S 36°51' E 174°53'3 5.7
2015-Feb-22 19:33S 36°50' E 174°49'3 2.7
2015-Feb-22 18:33S 36°50' E 174°46'11 0.8
2015-Feb-22 04:34S 36°47' E 174°59'1110.8
2015-Feb-22 03:33S 36°51' E 174°46'0 0.0
2015-Feb-22 02:33S 36°51' E 174°46'1110.8
2015-Feb-22 01:34S 36°47' E 174°59'1110.8
2015-Feb-22 00:33S 36°51' E 174°46'8 8.0
2015-Feb-21 23:33S 36°48' E 174°55'3 2.7
2015-Feb-21 22:33S 36°47' E 174°59'1110.7
2015-Feb-21 21:33S 36°51' E 174°46'1110.8
2015-Feb-21 20:33S 36°47' E 174°59'1 0.0
2015-Feb-21 04:33S 36°47' E 174°59'1111.3
2015-Feb-21 03:33S 36°51' E 174°46'0 0.0
2015-Feb-21 02:33S 36°51' E 174°46'1111.0
2015-Feb-21 01:33S 36°47' E 174°59'1111.0
2015-Feb-21 00:34S 36°51' E 174°46'8 7.6
2015-Feb-20 23:34S 36°48' E 174°55'3 3.2
2015-Feb-20 22:33S 36°47' E 174°59'1110.8
2015-Feb-20 21:33S 36°51' E 174°46'1110.7
2015-Feb-20 20:33S 36°47' E 174°59'  

Dump ship's entire track history